Time;durP1;ratioP1;P1;durP2;ratioP2;P2;SDS_P1;SDS_P2;PMS_P1;PMS_P2;Temp;Humidity;BMP_temperature;BMP_pressure;BME280_temperature;BME280_humidity;BME280_pressure;Samples;Min_cycle;Max_cycle;Signal;HPM_P1;HPM_P2
2021/10/14 00:02:25;;;;;;;5.55;4.03;;;8.20;99.90;;;;;;6156719;23;20162;-93
2021/10/14 00:04:50;;;;;;;7.30;5.20;;;8.20;99.90;;;;;;6158915;23;20495;-90
2021/10/14 00:07:18;;;;;;;7.20;5.10;;;8.20;99.90;;;;;;6156230;23;20385;-85
2021/10/14 00:09:43;;;;;;;5.95;4.57;;;8.20;99.90;;;;;;6156752;23;20187;-94
2021/10/14 00:12:10;;;;;;;7.87;5.30;;;8.30;99.90;;;;;;6157171;23;20167;-95
2021/10/14 00:14:35;;;;;;;5.45;4.07;;;8.30;99.90;;;;;;6156721;23;20540;-93
2021/10/14 00:17:02;;;;;;;5.87;4.70;;;8.30;99.90;;;;;;6156598;23;20199;-85
2021/10/14 00:19:29;;;;;;;5.97;4.35;;;8.30;99.90;;;;;;6156934;23;20480;-86
2021/10/14 00:21:57;;;;;;;7.05;4.32;;;8.30;99.90;;;;;;6156700;23;20155;-86
2021/10/14 00:24:22;;;;;;;4.35;3.78;;;8.40;99.90;;;;;;6159146;23;20183;-94
2021/10/14 00:26:49;;;;;;;5.83;4.57;;;8.40;99.90;;;;;;6162008;23;20167;-93
2021/10/14 00:29:17;;;;;;;6.25;3.85;;;8.40;99.90;;;;;;6161209;23;20163;-85
2021/10/14 00:31:45;;;;;;;5.47;4.40;;;8.40;99.90;;;;;;6163654;23;20162;-85
2021/10/14 00:34:10;;;;;;;5.70;4.25;;;8.40;99.90;;;;;;6163874;23;20167;-93
2021/10/14 00:36:36;;;;;;;6.10;4.20;;;8.40;99.90;;;;;;6156483;23;20509;-95
2021/10/14 00:39:03;;;;;;;5.47;4.03;;;8.40;99.90;;;;;;6156025;23;20163;-85
2021/10/14 00:41:29;;;;;;;6.13;4.20;;;8.40;99.90;;;;;;6155933;23;20159;-86
2021/10/14 00:43:58;;;;;;;5.83;4.30;;;8.50;99.90;;;;;;6157665;23;20159;-85
2021/10/14 00:46:26;;;;;;;6.13;4.22;;;8.50;99.90;;;;;;6156986;23;20412;-85
2021/10/14 00:48:54;;;;;;;7.03;4.50;;;8.50;99.90;;;;;;6155802;23;20186;-85
2021/10/14 00:51:20;;;;;;;5.88;4.20;;;8.50;99.90;;;;;;6155957;23;20227;-86
2021/10/14 00:53:47;;;;;;;4.65;3.78;;;8.50;99.90;;;;;;6159500;23;20218;-94
2021/10/14 00:56:15;;;;;;;5.65;4.25;;;8.50;99.90;;;;;;6171434;23;20223;-95
2021/10/14 00:58:42;;;;;;;5.05;4.22;;;8.50;99.90;;;;;;6156853;23;20155;-86
2021/10/14 01:01:08;;;;;;;5.10;3.95;;;8.60;99.90;;;;;;6160468;23;20175;-85
2021/10/14 01:03:34;;;;;;;5.30;4.13;;;8.60;99.90;;;;;;6155898;23;20162;-95
2021/10/14 01:06:00;;;;;;;5.55;4.65;;;8.60;99.90;;;;;;6156101;23;20186;-92
2021/10/14 01:08:28;;;;;;;6.80;4.05;;;8.60;99.90;;;;;;6155756;23;20159;-85
2021/10/14 01:10:54;;;;;;;7.55;4.60;;;8.60;99.90;;;;;;6157788;23;20175;-85
2021/10/14 01:13:20;;;;;;;4.88;4.30;;;8.70;99.90;;;;;;6164520;23;20556;-86
2021/10/14 01:15:46;;;;;;;5.10;4.40;;;8.60;99.90;;;;;;6155581;23;20222;-94
2021/10/14 01:18:13;;;;;;;6.00;4.57;;;8.70;99.90;;;;;;6156775;23;20162;-86
2021/10/14 01:20:40;;;;;;;7.30;5.22;;;8.70;99.90;;;;;;6155704;23;20203;-95
2021/10/14 01:23:06;;;;;;;6.70;4.68;;;8.70;99.90;;;;;;6155986;23;20155;-93
2021/10/14 01:25:32;;;;;;;5.17;4.10;;;8.70;99.90;;;;;;6156435;23;20241;-95
2021/10/14 01:27:59;;;;;;;5.77;4.67;;;8.70;99.90;;;;;;6157399;23;20380;-94
2021/10/14 01:30:25;;;;;;;6.30;4.57;;;8.70;99.90;;;;;;6156429;23;20432;-86
2021/10/14 01:32:53;;;;;;;5.88;4.50;;;8.70;99.90;;;;;;6156186;23;20155;-86
2021/10/14 01:35:19;;;;;;;6.28;4.68;;;8.70;99.90;;;;;;6155873;23;20202;-86
2021/10/14 01:37:46;;;;;;;6.40;4.25;;;8.70;99.90;;;;;;6156170;23;20155;-95
2021/10/14 01:40:13;;;;;;;14.52;4.93;;;8.80;99.90;;;;;;6158186;23;20182;-86
2021/10/14 01:42:39;;;;;;;6.80;5.50;;;8.70;99.90;;;;;;6156222;23;20193;-86
2021/10/14 01:45:06;;;;;;;8.27;5.15;;;8.80;99.90;;;;;;6156183;23;20187;-94
2021/10/14 01:47:34;;;;;;;5.40;4.65;;;8.70;99.90;;;;;;6159077;23;20152;-87
2021/10/14 01:50:01;;;;;;;6.50;4.60;;;8.80;99.90;;;;;;6159227;23;20639;-93
2021/10/14 01:52:28;;;;;;;6.70;4.63;;;8.80;99.90;;;;;;6165775;23;20155;-93
2021/10/14 01:54:55;;;;;;;6.22;4.40;;;8.80;99.90;;;;;;6164423;23;20193;-94
2021/10/14 01:57:21;;;;;;;6.47;4.70;;;8.80;99.90;;;;;;6158834;23;20163;-91
2021/10/14 01:59:47;;;;;;;5.05;4.07;;;8.80;99.90;;;;;;6156776;23;20194;-95
2021/10/14 02:02:14;;;;;;;5.43;4.03;;;8.80;99.90;;;;;;6162953;23;20219;-94
2021/10/14 02:04:41;;;;;;;5.70;4.60;;;8.80;99.90;;;;;;6176736;23;20236;-92
2021/10/14 02:07:06;;;;;;;5.97;4.23;;;8.80;99.90;;;;;;6158057;23;20171;-95
2021/10/14 02:09:33;;;;;;;7.00;4.37;;;8.80;99.90;;;;;;6159193;23;20404;-94
2021/10/14 02:12:00;;;;;;;5.22;4.57;;;8.80;99.90;;;;;;6170474;23;20163;-86
2021/10/14 02:14:26;;;;;;;6.75;4.93;;;8.80;99.90;;;;;;6176081;23;20214;-86
2021/10/14 02:16:52;;;;;;;6.47;4.70;;;8.80;99.90;;;;;;6178951;23;20194;-93
2021/10/14 02:19:19;;;;;;;7.27;4.67;;;8.80;99.90;;;;;;6175771;23;20207;-86
2021/10/14 02:21:45;;;;;;;7.60;5.07;;;8.90;99.90;;;;;;6179794;23;20139;-86
2021/10/14 02:24:10;;;;;;;7.63;4.53;;;8.80;99.90;;;;;;6179855;23;20163;-93
2021/10/14 02:26:37;;;;;;;7.50;5.20;;;8.80;99.90;;;;;;6180045;23;20400;-95
2021/10/14 02:29:03;;;;;;;6.47;4.60;;;8.80;99.90;;;;;;6174667;23;20178;-95
2021/10/14 02:31:29;;;;;;;8.55;5.35;;;8.80;99.90;;;;;;6157347;23;20321;-95
2021/10/14 02:33:55;;;;;;;7.83;5.30;;;8.80;99.90;;;;;;6158155;23;20155;-88
2021/10/14 02:36:21;;;;;;;8.55;5.28;;;8.80;99.90;;;;;;6157399;23;20207;-86
2021/10/14 02:38:48;;;;;;;6.43;4.90;;;8.80;99.90;;;;;;6156975;23;20164;-86
2021/10/14 02:41:14;;;;;;;6.95;5.22;;;8.80;99.90;;;;;;6157241;23;20175;-95
2021/10/14 02:43:40;;;;;;;7.00;4.90;;;8.80;99.90;;;;;;6159415;23;20154;-94
2021/10/14 02:46:06;;;;;;;7.50;5.35;;;8.80;99.90;;;;;;6157490;23;20210;-95
2021/10/14 02:48:35;;;;;;;7.38;4.85;;;8.80;99.90;;;;;;6159054;23;20151;-86
2021/10/14 02:51:01;;;;;;;7.55;5.18;;;8.70;99.90;;;;;;6157584;23;20492;-89
2021/10/14 02:53:28;;;;;;;7.50;4.88;;;8.70;99.90;;;;;;6157345;23;20163;-87
2021/10/14 02:55:56;;;;;;;7.75;5.30;;;8.70;99.90;;;;;;6157128;23;20207;-86
2021/10/14 02:58:23;;;;;;;8.07;5.60;;;8.70;99.90;;;;;;6157198;23;20170;-85
2021/10/14 03:00:49;;;;;;;8.75;6.10;;;8.70;99.90;;;;;;6156915;23;20183;-86
2021/10/14 03:03:15;;;;;;;7.75;5.65;;;8.60;99.90;;;;;;6156976;23;20170;-86
2021/10/14 03:05:41;;;;;;;11.95;7.75;;;8.60;99.90;;;;;;6156936;23;20183;-94
2021/10/14 03:08:07;;;;;;;11.00;7.17;;;8.60;99.90;;;;;;6157157;23;20216;-86
2021/10/14 03:10:34;;;;;;;8.03;5.30;;;8.60;99.90;;;;;;6156801;23;20264;-86
2021/10/14 03:13:01;;;;;;;7.88;6.65;;;8.50;99.90;;;;;;6169888;23;20551;-94
2021/10/14 03:15:27;;;;;;;7.20;6.13;;;8.50;99.90;;;;;;6162680;23;20202;-95
2021/10/14 03:17:53;;;;;;;10.33;6.40;;;8.50;99.90;;;;;;6162355;23;20150;-91
2021/10/14 03:20:20;;;;;;;10.25;7.00;;;8.40;99.90;;;;;;6188705;23;20517;-93
2021/10/14 03:22:45;;;;;;;9.57;6.95;;;8.40;99.90;;;;;;6163782;23;20655;-94
2021/10/14 03:25:11;;;;;;;9.37;6.17;;;8.40;99.90;;;;;;6164387;23;20186;-94
2021/10/14 03:27:40;;;;;;;11.03;7.70;;;8.40;99.90;;;;;;6165125;23;20419;-86
2021/10/14 03:30:07;;;;;;;10.82;7.20;;;8.40;99.90;;;;;;6177352;23;20185;-86
2021/10/14 03:32:34;;;;;;;8.10;6.53;;;8.40;99.90;;;;;;6173627;23;20180;-87
2021/10/14 03:35:01;;;;;;;10.32;8.10;;;8.40;99.90;;;;;;6162400;23;20191;-94
2021/10/14 03:37:27;;;;;;;12.35;7.80;;;8.30;99.90;;;;;;6162368;23;20165;-87
2021/10/14 03:39:52;;;;;;;10.37;7.67;;;8.30;99.90;;;;;;6162479;23;20179;-87
2021/10/14 03:42:20;;;;;;;10.03;7.67;;;8.30;99.90;;;;;;6165124;23;20166;-87
2021/10/14 03:44:46;;;;;;;12.13;8.07;;;8.30;99.90;;;;;;6163594;23;20194;-95
2021/10/14 03:47:12;;;;;;;9.53;7.90;;;8.30;99.90;;;;;;6163612;23;20352;-89
2021/10/14 03:49:41;;;;;;;11.07;8.18;;;8.30;99.90;;;;;;6163525;23;20624;-86
2021/10/14 03:52:07;;;;;;;13.20;8.35;;;8.30;99.90;;;;;;6162343;23;20201;-87
2021/10/14 03:54:33;;;;;;;11.60;8.30;;;8.30;99.90;;;;;;6163705;23;20190;-95
2021/10/14 03:57:01;;;;;;;11.10;7.80;;;8.40;99.90;;;;;;6168227;23;20439;-86
2021/10/14 03:59:28;;;;;;;12.07;8.10;;;8.40;99.90;;;;;;6166705;23;20636;-95
2021/10/14 04:01:55;;;;;;;12.25;8.00;;;8.50;99.90;;;;;;6187776;23;20584;-93
2021/10/14 04:04:23;;;;;;;34.70;21.92;;;8.50;99.90;;;;;;6161755;23;20187;-94
2021/10/14 04:06:50;;;;;;;25.75;12.95;;;8.60;99.90;;;;;;6192158;23;20146;-86
2021/10/14 04:09:17;;;;;;;11.77;8.63;;;8.60;99.90;;;;;;6168347;23;20265;-87
2021/10/14 04:11:43;;;;;;;14.77;9.65;;;8.70;99.90;;;;;;6165678;23;20627;-95
2021/10/14 04:14:10;;;;;;;12.10;8.53;;;8.80;99.90;;;;;;6161648;23;20210;-87
2021/10/14 04:16:36;;;;;;;12.40;8.63;;;8.80;99.90;;;;;;6161795;23;20849;-87
2021/10/14 04:19:02;;;;;;;12.80;9.53;;;8.90;99.90;;;;;;6175217;23;20170;-92
2021/10/14 04:21:29;;;;;;;17.60;11.17;;;8.90;99.90;;;;;;6181145;23;20436;-87
2021/10/14 04:23:56;;;;;;;19.63;13.55;;;9.00;99.90;;;;;;6161590;23;20166;-92
2021/10/14 04:26:22;;;;;;;17.73;11.00;;;9.00;99.90;;;;;;6190519;23;20171;-95
2021/10/14 04:28:48;;;;;;;18.50;11.30;;;9.00;99.90;;;;;;6163694;23;20555;-94
2021/10/14 04:31:14;;;;;;;15.43;9.80;;;8.90;99.90;;;;;;6161032;23;20408;-87
2021/10/14 04:33:40;;;;;;;14.38;10.05;;;8.90;99.90;;;;;;6160310;23;20590;-89
2021/10/14 04:36:06;;;;;;;11.75;9.00;;;8.80;99.90;;;;;;6162380;23;20197;-94
2021/10/14 04:38:32;;;;;;;11.48;9.35;;;8.80;99.90;;;;;;6162736;23;20158;-93
2021/10/14 04:40:59;;;;;;;18.13;10.47;;;8.70;99.90;;;;;;6161654;23;20707;-87
2021/10/14 04:43:25;;;;;;;12.90;8.95;;;8.70;99.90;;;;;;6162410;23;20158;-87
2021/10/14 04:45:52;;;;;;;14.63;10.57;;;8.70;99.90;;;;;;6161339;23;20189;-87
2021/10/14 04:48:18;;;;;;;16.55;9.70;;;8.60;99.90;;;;;;6161289;23;20162;-94
2021/10/14 04:50:45;;;;;;;16.47;10.73;;;8.60;99.90;;;;;;6161033;23;20186;-94
2021/10/14 04:53:11;;;;;;;15.23;10.60;;;8.60;99.90;;;;;;6161597;23;20359;-93
2021/10/14 04:55:38;;;;;;;14.35;10.52;;;8.60;99.90;;;;;;6160856;23;20202;-87
2021/10/14 04:58:04;;;;;;;15.30;10.48;;;8.60;99.90;;;;;;6161364;23;20934;-93
2021/10/14 05:00:30;;;;;;;15.65;10.73;;;8.50;99.90;;;;;;6167728;23;20174;-93
2021/10/14 05:03:00;;;;;;;16.37;9.90;;;8.60;99.90;;;;;;6169902;23;20233;-86
2021/10/14 05:05:27;;;;;;;14.23;10.60;;;8.50;99.90;;;;;;6161157;23;20187;-93
2021/10/14 05:07:53;;;;;;;14.18;10.23;;;8.50;99.90;;;;;;6160226;23;20205;-90
2021/10/14 05:10:21;;;;;;;13.30;9.48;;;8.50;99.90;;;;;;6160762;23;20257;-87
2021/10/14 05:12:47;;;;;;;12.80;10.05;;;8.50;99.90;;;;;;6159913;23;20229;-94
2021/10/14 05:15:16;;;;;;;14.10;10.10;;;8.50;99.90;;;;;;6160915;23;20202;-87
2021/10/14 05:17:42;;;;;;;13.85;9.18;;;8.50;99.90;;;;;;6160360;23;20169;-87
2021/10/14 05:20:09;;;;;;;12.40;9.10;;;8.50;99.90;;;;;;6159637;23;20265;-88
2021/10/14 05:22:35;;;;;;;13.00;9.77;;;8.50;99.90;;;;;;6185057;23;20373;-94
2021/10/14 05:25:01;;;;;;;12.00;9.07;;;8.40;99.90;;;;;;6158876;23;20567;-95
2021/10/14 05:27:27;;;;;;;12.57;9.13;;;8.50;99.90;;;;;;6160285;23;20720;-87
2021/10/14 05:29:53;;;;;;;12.32;8.43;;;8.50;99.90;;;;;;6158090;23;20435;-93
2021/10/14 05:32:20;;;;;;;13.77;9.07;;;8.40;99.90;;;;;;6157005;23;20186;-86
2021/10/14 05:34:46;;;;;;;12.37;9.10;;;8.40;99.90;;;;;;6158958;23;20265;-86
2021/10/14 05:37:14;;;;;;;15.65;10.50;;;8.50;99.90;;;;;;6159422;23;20463;-87
2021/10/14 05:39:40;;;;;;;10.98;9.15;;;8.50;99.90;;;;;;6157999;23;20182;-93
2021/10/14 05:42:07;;;;;;;12.50;9.00;;;8.50;99.90;;;;;;6183794;23;20162;-93
2021/10/14 05:44:33;;;;;;;12.88;8.77;;;8.50;99.90;;;;;;6154910;23;20893;-94
2021/10/14 05:46:59;;;;;;;12.07;7.50;;;8.50;99.90;;;;;;6155037;23;20162;-87
2021/10/14 05:49:25;;;;;;;10.43;7.53;;;8.50;99.90;;;;;;6154299;23;20423;-89
2021/10/14 05:51:57;;;;;;;9.70;7.50;;;8.50;99.90;;;;;;6153067;23;20852;-87
2021/10/14 05:54:22;;;;;;;11.48;6.65;;;8.50;99.90;;;;;;6186211;23;20185;-93
2021/10/14 05:56:53;;;;;;;11.40;6.90;;;8.60;99.90;;;;;;6201377;23;20182;-87
2021/10/14 05:59:19;;;;;;;9.32;6.38;;;8.60;99.90;;;;;;6166311;23;20189;-87
2021/10/14 06:01:45;;;;;;;9.27;7.03;;;8.60;99.90;;;;;;6161498;23;20288;-87
2021/10/14 06:04:16;;;;;;;12.93;7.60;;;8.60;99.90;;;;;;6160735;23;20177;-87
2021/10/14 06:06:41;;;;;;;7.65;5.82;;;8.60;99.90;;;;;;6158439;23;20173;-93
2021/10/14 06:09:08;;;;;;;11.07;7.07;;;8.60;99.90;;;;;;6184208;23;20498;-87
2021/10/14 06:11:35;;;;;;;10.00;6.90;;;8.60;99.90;;;;;;6158118;23;20158;-88
2021/10/14 06:14:00;;;;;;;15.53;9.83;;;8.60;99.90;;;;;;6158062;23;20210;-87
2021/10/14 06:16:27;;;;;;;14.00;7.23;;;8.60;99.90;;;;;;6157355;23;20435;-86
2021/10/14 06:18:53;;;;;;;9.02;6.32;;;8.60;99.90;;;;;;6185683;23;20355;-92
2021/10/14 06:21:21;;;;;;;10.40;6.90;;;8.60;99.90;;;;;;6161442;23;20197;-87
2021/10/14 06:23:47;;;;;;;11.10;7.70;;;8.60;99.90;;;;;;6158714;23;20186;-93
2021/10/14 06:26:16;;;;;;;10.47;6.50;;;8.60;99.90;;;;;;6157354;23;20213;-87
2021/10/14 06:28:42;;;;;;;11.05;6.95;;;8.60;99.90;;;;;;6133167;23;20159;-87
2021/10/14 06:31:09;;;;;;;12.10;7.35;;;8.60;99.90;;;;;;6157970;23;20217;-93
2021/10/14 06:33:36;;;;;;;13.50;7.82;;;8.60;99.90;;;;;;6186013;23;20462;-86
2021/10/14 06:36:01;;;;;;;9.93;6.95;;;8.60;99.90;;;;;;6159877;23;20655;-93
2021/10/14 06:38:27;;;;;;;9.30;6.27;;;8.70;99.90;;;;;;6158701;23;20190;-94
2021/10/14 06:40:53;;;;;;;10.40;6.53;;;8.70;99.90;;;;;;6158051;23;20628;-93
2021/10/14 06:43:21;;;;;;;12.93;9.23;;;8.70;99.90;;;;;;6156004;23;20190;-87
2021/10/14 06:45:49;;;;;;;14.60;8.50;;;8.70;99.90;;;;;;6155409;23;20265;-86
2021/10/14 06:48:15;;;;;;;12.70;7.95;;;8.70;99.90;;;;;;6182776;23;20596;-93
2021/10/14 06:50:43;;;;;;;18.53;8.00;;;8.70;99.90;;;;;;6165859;23;20201;-87
2021/10/14 06:53:11;;;;;;;11.75;7.20;;;8.70;99.90;;;;;;6131642;23;20155;-88
2021/10/14 06:55:39;;;;;;;14.02;8.35;;;8.70;99.90;;;;;;6154604;23;20210;-87
2021/10/14 06:58:06;;;;;;;11.48;8.07;;;8.70;99.90;;;;;;6183033;23;20155;-87
2021/10/14 07:00:33;;;;;;;13.68;8.00;;;8.80;99.90;;;;;;6190308;23;20178;-87
2021/10/14 07:02:58;;;;;;;11.13;7.43;;;8.80;99.90;;;;;;6185281;23;20273;-94
2021/10/14 07:05:24;;;;;;;10.40;7.10;;;8.80;99.90;;;;;;6157125;23;20226;-95
2021/10/14 07:07:53;;;;;;;10.70;7.23;;;8.80;99.90;;;;;;6155230;23;20165;-93
2021/10/14 07:10:21;;;;;;;12.65;8.05;;;8.80;99.90;;;;;;6153229;23;20819;-86
2021/10/14 07:12:47;;;;;;;11.70;8.43;;;8.80;99.90;;;;;;6150678;23;20206;-86
2021/10/14 07:15:14;;;;;;;12.55;7.65;;;8.80;99.90;;;;;;6151224;23;20187;-93
2021/10/14 07:17:39;;;;;;;9.93;7.38;;;8.80;99.90;;;;;;6155636;23;20147;-86
2021/10/14 07:20:06;;;;;;;17.25;11.43;;;8.80;99.90;;;;;;6156642;23;20222;-86
2021/10/14 07:22:37;;;;;;;20.48;12.57;;;8.90;99.90;;;;;;6178849;23;20198;-87
2021/10/14 07:25:05;;;;;;;21.10;14.52;;;8.90;99.90;;;;;;6169318;23;20393;-86
2021/10/14 07:27:31;;;;;;;37.30;27.02;;;8.90;99.90;;;;;;6155075;23;20463;-87
2021/10/14 07:29:58;;;;;;;37.70;25.30;;;8.90;99.90;;;;;;6146399;23;20277;-86
2021/10/14 07:32:24;;;;;;;24.75;17.17;;;8.90;99.90;;;;;;6151991;23;20162;-86
2021/10/14 07:34:49;;;;;;;14.27;11.40;;;8.90;99.90;;;;;;6152911;23;20609;-85
2021/10/14 07:37:19;;;;;;;14.60;9.73;;;8.90;99.90;;;;;;6154194;23;20414;-86
2021/10/14 07:39:45;;;;;;;15.10;9.45;;;8.90;99.90;;;;;;6156427;23;20175;-93
2021/10/14 07:42:11;;;;;;;38.78;21.90;;;8.90;99.90;;;;;;6150959;23;20531;-92
2021/10/14 07:44:38;;;;;;;21.83;14.20;;;8.90;99.90;;;;;;6155312;23;20186;-85
2021/10/14 07:47:05;;;;;;;14.93;10.30;;;8.90;99.90;;;;;;6155495;23;20609;-93
2021/10/14 07:49:31;;;;;;;17.05;9.75;;;8.90;99.90;;;;;;6164745;23;20264;-93
2021/10/14 07:51:57;;;;;;;14.50;10.88;;;8.90;99.90;;;;;;6156484;23;20351;-90
2021/10/14 07:54:24;;;;;;;13.57;10.80;;;9.00;99.90;;;;;;6157477;23;20191;-94
2021/10/14 07:56:50;;;;;;;18.95;11.65;;;9.00;99.90;;;;;;6157914;23;20187;-92
2021/10/14 07:59:17;;;;;;;20.83;14.07;;;9.00;99.90;;;;;;6159525;23;20163;-86
2021/10/14 08:01:44;;;;;;;23.35;15.98;;;9.00;99.90;;;;;;6161241;23;20162;-86
2021/10/14 08:04:10;;;;;;;19.10;13.43;;;9.00;99.90;;;;;;6151411;23;20178;-93
2021/10/14 08:06:36;;;;;;;16.43;11.43;;;9.00;99.90;;;;;;6156418;23;20147;-92
2021/10/14 08:09:03;;;;;;;15.87;10.03;;;9.00;99.90;;;;;;6154693;23;20423;-86
2021/10/14 08:11:30;;;;;;;14.70;10.45;;;9.00;99.90;;;;;;6155086;23;20381;-86
2021/10/14 08:13:56;;;;;;;18.48;11.05;;;9.00;99.90;;;;;;6153978;23;20210;-86
2021/10/14 08:16:22;;;;;;;15.73;10.95;;;9.00;99.90;;;;;;6154565;23;20261;-94
2021/10/14 08:18:49;;;;;;;20.67;12.47;;;9.10;99.90;;;;;;6151967;23;20238;-86
2021/10/14 08:21:15;;;;;;;18.17;12.90;;;9.10;99.90;;;;;;6152460;23;20182;-85
2021/10/14 08:23:41;;;;;;;19.70;12.02;;;9.10;99.90;;;;;;6154470;23;20202;-93
2021/10/14 08:26:10;;;;;;;25.03;15.90;;;9.10;99.90;;;;;;6156633;23;20187;-86
2021/10/14 08:28:36;;;;;;;21.17;14.27;;;9.10;99.90;;;;;;6154060;23;20215;-86
2021/10/14 08:31:02;;;;;;;20.27;14.07;;;9.10;99.90;;;;;;6150872;23;20213;-86
2021/10/14 08:33:29;;;;;;;24.58;14.77;;;9.20;99.90;;;;;;6134668;23;20720;-85
2021/10/14 08:35:55;;;;;;;22.95;14.63;;;9.20;99.90;;;;;;6109578;23;20590;-93
2021/10/14 08:38:21;;;;;;;325.97;115.77;;;9.20;99.90;;;;;;6151783;23;20187;-93
2021/10/14 08:40:50;;;;;;;221.83;90.63;;;9.20;99.90;;;;;;6153025;23;20186;-87
2021/10/14 08:43:18;;;;;;;146.63;65.85;;;9.20;99.90;;;;;;6152159;23;20367;-86
2021/10/14 08:45:46;;;;;;;66.50;36.13;;;9.20;99.90;;;;;;6156452;23;20511;-85
2021/10/14 08:48:13;;;;;;;34.35;21.67;;;9.20;99.90;;;;;;6154661;23;20166;-93
2021/10/14 08:50:44;;;;;;;23.48;16.38;;;9.20;99.90;;;;;;6154917;23;20524;-86
2021/10/14 08:53:10;;;;;;;19.83;12.27;;;9.20;99.90;;;;;;6153145;23;20489;-93
2021/10/14 08:55:40;;;;;;;23.77;14.70;;;9.20;99.90;;;;;;6153279;23;20202;-86
2021/10/14 08:58:09;;;;;;;19.67;12.65;;;9.20;99.90;;;;;;6153699;23;20163;-85
2021/10/14 09:00:36;;;;;;;16.45;10.68;;;9.20;99.90;;;;;;6153478;23;20189;-85
2021/10/14 09:03:25;;;;;;;19.33;11.35;;;9.20;99.90;;;;;;6151574;23;20162;-85
2021/10/14 09:05:54;;;;;;;21.00;11.90;;;9.30;99.90;;;;;;6149860;23;20190;-86
2021/10/14 09:08:39;;;;;;;21.65;12.75;;;9.30;99.90;;;;;;6152171;23;20190;-92
2021/10/14 09:11:14;;;;;;;16.48;10.75;;;9.30;99.90;;;;;;6151793;23;20191;-93
2021/10/14 09:14:04;;;;;;;19.63;12.00;;;9.30;99.90;;;;;;6153052;23;20272;-94
2021/10/14 09:16:31;;;;;;;21.55;10.25;;;9.40;99.90;;;;;;6161798;23;20195;-94
2021/10/14 09:19:15;;;;;;;22.05;10.75;;;9.40;99.90;;;;;;6154537;23;20159;-94
2021/10/14 09:21:59;;;;;;;20.73;12.10;;;9.50;99.90;;;;;;6155282;23;20162;-86
2021/10/14 09:24:25;;;;;;;19.45;12.63;;;9.50;99.90;;;;;;6150423;23;20228;-86
2021/10/14 09:26:51;;;;;;;18.77;11.23;;;9.50;99.90;;;;;;6154068;23;20183;-94
2021/10/14 09:29:21;;;;;;;15.23;10.35;;;9.60;99.90;;;;;;6159870;23;20163;-91
2021/10/14 09:32:20;;;;;;;20.25;12.35;;;9.60;99.90;;;;;;6168633;23;20237;-94
2021/10/14 09:34:48;;;;;;;17.35;11.25;;;9.60;99.90;;;;;;6155047;23;20239;-86
2021/10/14 09:37:17;;;;;;;19.20;11.85;;;9.70;99.90;;;;;;6154711;23;20196;-94
2021/10/14 09:40:05;;;;;;;19.20;11.10;;;9.70;99.90;;;;;;6154246;23;20179;-94
2021/10/14 09:43:01;;;;;;;18.85;11.25;;;9.70;99.90;;;;;;6155274;23;20254;-94
2021/10/14 09:45:33;;;;;;;19.88;11.43;;;9.70;99.90;;;;;;6152574;23;20502;-86
2021/10/14 09:48:04;;;;;;;17.83;11.55;;;9.70;99.90;;;;;;6154590;23;20238;-93
2021/10/14 09:50:31;;;;;;;23.40;13.02;;;9.70;99.90;;;;;;6154454;23;20516;-86
2021/10/14 09:53:02;;;;;;;21.60;12.15;;;9.70;99.90;;;;;;6163950;23;20170;-86
2021/10/14 09:55:29;;;;;;;20.60;13.68;;;9.70;99.90;;;;;;6165787;23;20203;-86
2021/10/14 09:57:56;;;;;;;24.33;12.85;;;9.70;99.90;;;;;;6153327;23;20166;-86
2021/10/14 10:00:25;;;;;;;21.85;13.20;;;9.80;99.90;;;;;;6155512;23;20211;-86
2021/10/14 10:02:54;;;;;;;18.15;11.38;;;9.80;99.90;;;;;;6154503;23;20214;-93
2021/10/14 10:05:22;;;;;;;18.75;11.93;;;9.70;99.90;;;;;;6147882;23;20193;-85
2021/10/14 10:07:50;;;;;;;21.42;12.15;;;9.80;99.90;;;;;;6155969;23;20163;-86
2021/10/14 10:10:19;;;;;;;22.65;12.15;;;9.80;99.90;;;;;;6154493;23;20183;-88
2021/10/14 10:12:47;;;;;;;18.85;11.90;;;9.80;99.90;;;;;;6153597;23;20168;-94
2021/10/14 10:15:13;;;;;;;21.02;12.25;;;9.80;99.90;;;;;;6157504;23;20211;-94
2021/10/14 10:17:41;;;;;;;33.37;20.27;;;9.80;99.90;;;;;;6173540;23;20167;-94
2021/10/14 10:20:09;;;;;;;15.85;11.18;;;9.80;99.90;;;;;;6156898;23;20398;-86
2021/10/14 10:22:35;;;;;;;20.90;11.23;;;9.80;99.90;;;;;;6155256;23;20163;-86
2021/10/14 10:25:35;;;;;;;17.60;10.27;;;9.90;99.90;;;;;;6153430;23;20186;-85
2021/10/14 10:28:03;;;;;;;15.38;9.73;;;9.90;99.90;;;;;;6153473;23;20148;-86
2021/10/14 10:30:35;;;;;;;25.02;15.70;;;9.90;99.90;;;;;;6154276;23;20175;-93
2021/10/14 10:33:02;;;;;;;17.30;10.90;;;10.00;99.90;;;;;;6152073;23;20473;-85
2021/10/14 10:35:44;;;;;;;24.63;15.07;;;10.00;99.90;;;;;;6152398;23;20241;-94
2021/10/14 10:38:23;;;;;;;20.95;13.70;;;10.00;99.90;;;;;;6154210;23;20162;-94
2021/10/14 10:40:52;;;;;;;43.28;33.50;;;10.10;99.90;;;;;;6153390;23;20187;-86
2021/10/14 10:43:25;;;;;;;30.08;22.75;;;10.20;99.90;;;;;;6156437;23;20174;-95
2021/10/14 10:45:54;;;;;;;19.85;11.95;;;10.20;99.90;;;;;;6143627;23;20214;-94
2021/10/14 10:48:35;;;;;;;16.92;10.75;;;10.20;99.90;;;;;;6157332;23;20171;-94
2021/10/14 10:51:02;;;;;;;16.38;10.85;;;10.30;99.90;;;;;;6154611;23;20183;-86
2021/10/14 10:53:42;;;;;;;17.85;13.02;;;10.20;99.90;;;;;;6160830;23;20178;-92
2021/10/14 10:56:32;;;;;;;18.02;12.43;;;10.20;99.90;;;;;;6167519;23;20207;-86
2021/10/14 10:58:59;;;;;;;17.80;11.70;;;10.30;99.90;;;;;;6156058;23;20151;-93
2021/10/14 11:01:25;;;;;;;18.88;12.07;;;10.30;99.90;;;;;;6154955;23;20159;-93
2021/10/14 11:03:58;;;;;;;21.10;13.87;;;10.40;99.90;;;;;;6156822;23;20163;-95
2021/10/14 11:06:25;;;;;;;18.55;12.80;;;10.50;99.90;;;;;;6155835;23;20413;-94
2021/10/14 11:08:53;;;;;;;19.67;11.60;;;10.60;99.90;;;;;;6155982;23;20164;-87
2021/10/14 11:11:24;;;;;;;18.38;11.43;;;10.70;99.90;;;;;;6153396;23;20183;-94
2021/10/14 11:13:53;;;;;;;17.05;10.88;;;10.80;99.90;;;;;;6155121;23;20198;-87
2021/10/14 11:16:27;;;;;;;20.05;12.60;;;10.80;99.90;;;;;;6155185;23;20524;-86
2021/10/14 11:18:55;;;;;;;18.10;10.98;;;10.90;99.90;;;;;;6155380;23;20182;-95
2021/10/14 11:21:22;;;;;;;15.57;10.85;;;11.00;99.90;;;;;;6154523;23;20245;-94
2021/10/14 11:23:51;;;;;;;19.88;10.75;;;11.00;99.90;;;;;;6166632;23;20147;-87
2021/10/14 11:26:36;;;;;;;17.10;11.23;;;11.00;99.90;;;;;;6155325;23;20226;-93
2021/10/14 11:29:05;;;;;;;16.77;10.95;;;11.10;99.90;;;;;;6155321;23;20151;-94
2021/10/14 11:31:41;;;;;;;18.58;11.43;;;11.20;99.90;;;;;;6151159;23;20246;-86
2021/10/14 11:34:15;;;;;;;19.05;10.95;;;11.20;99.90;;;;;;6154669;23;20201;-86
2021/10/14 11:36:49;;;;;;;15.55;10.73;;;11.30;99.90;;;;;;6152130;23;20276;-86
2021/10/14 11:39:15;;;;;;;16.50;10.10;;;11.30;99.90;;;;;;6151211;23;20532;-95
2021/10/14 11:41:41;;;;;;;13.80;10.48;;;11.40;99.90;;;;;;6149262;23;20171;-93
2021/10/14 11:44:10;;;;;;;16.13;11.10;;;11.50;99.90;;;;;;6152411;23;20642;-86
2021/10/14 11:46:39;;;;;;;18.27;11.20;;;11.50;99.90;;;;;;6154378;23;20385;-94
2021/10/14 11:49:07;;;;;;;19.92;13.55;;;11.60;99.90;;;;;;6165943;23;20155;-95
2021/10/14 11:51:35;;;;;;;23.80;15.85;;;11.60;99.90;;;;;;6155276;23;20186;-95
2021/10/14 11:54:08;;;;;;;40.53;23.40;;;11.60;99.90;;;;;;6152343;23;20155;-94
2021/10/14 11:56:42;;;;;;;18.58;12.35;;;11.70;99.90;;;;;;6165895;23;20195;-94
2021/10/14 11:59:09;;;;;;;21.67;12.45;;;11.70;99.90;;;;;;6165325;23;20168;-94
2021/10/14 12:01:49;;;;;;;20.43;14.03;;;11.80;99.90;;;;;;6155363;23;20163;-86
2021/10/14 12:04:18;;;;;;;15.73;10.55;;;11.80;99.90;;;;;;6153667;23;20400;-86
2021/10/14 12:06:45;;;;;;;16.27;10.98;;;11.80;99.90;;;;;;6154358;23;20620;-94
2021/10/14 12:09:15;;;;;;;15.93;10.88;;;11.80;99.90;;;;;;6151480;23;20169;-86
2021/10/14 12:11:42;;;;;;;17.38;11.50;;;11.80;99.90;;;;;;6150101;23;20477;-85
2021/10/14 12:14:09;;;;;;;14.70;12.23;;;11.70;99.90;;;;;;6151639;23;20253;-86
2021/10/14 12:16:35;;;;;;;16.25;10.15;;;11.70;99.90;;;;;;6153649;23;20195;-94
2021/10/14 12:19:18;;;;;;;14.57;10.27;;;11.60;99.90;;;;;;6155351;23;20166;-94
2021/10/14 12:21:46;;;;;;;12.93;9.48;;;11.60;99.90;;;;;;6154335;23;20476;-94
2021/10/14 12:24:26;;;;;;;14.73;10.63;;;11.60;99.90;;;;;;6152874;23;20166;-86
2021/10/14 12:26:58;;;;;;;14.35;10.48;;;11.60;99.90;;;;;;6156017;23;20222;-86
2021/10/14 12:29:32;;;;;;;15.30;10.30;;;11.60;99.90;;;;;;6158239;23;20183;-93
2021/10/14 12:32:13;;;;;;;16.45;10.65;;;11.60;99.90;;;;;;6160753;23;20163;-95
2021/10/14 12:34:53;;;;;;;15.55;10.98;;;11.60;99.90;;;;;;6157183;23;20201;-92
2021/10/14 12:37:28;;;;;;;18.35;12.90;;;11.60;99.90;;;;;;6153279;23;20190;-86
2021/10/14 12:40:18;;;;;;;18.27;11.68;;;11.60;99.90;;;;;;6154443;23;20174;-85
2021/10/14 12:42:53;;;;;;;18.88;10.60;;;11.60;99.90;;;;;;6153746;23;20160;-94
2021/10/14 12:49:11;;;;;;;17.55;10.60;;;11.60;99.90;;;;;;6157649;23;20170;-94
2021/10/14 12:51:12;;;;;;;20.05;13.63;;;11.70;99.90;;;;;;6155221;23;20175;-94
2021/10/14 12:54:02;;;;;;;22.20;11.63;;;11.70;99.90;;;;;;6153945;23;20170;-94